sensor_id;sensor_type;location;lat;lon;timestamp;P1;durP1;ratioP1;P2;durP2;ratioP2
34236;SDS011;20501;45.956;13.632;2023-08-30T00:01:46;1.80;;;0.93;;
34236;SDS011;20501;45.956;13.632;2023-08-30T00:04:12;1.67;;;0.90;;
34236;SDS011;20501;45.956;13.632;2023-08-30T00:06:37;3.53;;;0.93;;
34236;SDS011;20501;45.956;13.632;2023-08-30T00:09:03;2.13;;;1.00;;
34236;SDS011;20501;45.956;13.632;2023-08-30T00:11:28;2.58;;;0.70;;
34236;SDS011;20501;45.956;13.632;2023-08-30T00:14:02;2.80;;;0.80;;
34236;SDS011;20501;45.956;13.632;2023-08-30T00:16:30;4.28;;;1.10;;
34236;SDS011;20501;45.956;13.632;2023-08-30T00:18:56;1.70;;;0.70;;
34236;SDS011;20501;45.956;13.632;2023-08-30T00:21:22;3.45;;;1.00;;
34236;SDS011;20501;45.956;13.632;2023-08-30T00:23:47;3.53;;;0.60;;
34236;SDS011;20501;45.956;13.632;2023-08-30T00:26:13;5.15;;;0.70;;
34236;SDS011;20501;45.956;13.632;2023-08-30T00:28:38;3.75;;;0.63;;
34236;SDS011;20501;45.956;13.632;2023-08-30T00:31:03;1.55;;;0.73;;
34236;SDS011;20501;45.956;13.632;2023-08-30T00:33:29;1.60;;;0.63;;
34236;SDS011;20501;45.956;13.632;2023-08-30T00:35:55;6.50;;;1.40;;
34236;SDS011;20501;45.956;13.632;2023-08-30T00:38:25;1.10;;;0.32;;
34236;SDS011;20501;45.956;13.632;2023-08-30T00:40:51;0.57;;;0.43;;
34236;SDS011;20501;45.956;13.632;2023-08-30T00:43:17;2.15;;;0.60;;
34236;SDS011;20501;45.956;13.632;2023-08-30T00:45:43;2.67;;;0.55;;
34236;SDS011;20501;45.956;13.632;2023-08-30T00:48:10;3.75;;;0.50;;
34236;SDS011;20501;45.956;13.632;2023-08-30T00:50:36;0.65;;;0.50;;
34236;SDS011;20501;45.956;13.632;2023-08-30T00:53:03;3.87;;;0.47;;
34236;SDS011;20501;45.956;13.632;2023-08-30T00:55:31;2.92;;;0.50;;
34236;SDS011;20501;45.956;13.632;2023-08-30T00:58:00;1.13;;;0.52;;
34236;SDS011;20501;45.956;13.632;2023-08-30T01:02:53;4.18;;;0.80;;
34236;SDS011;20501;45.956;13.632;2023-08-30T01:05:19;2.03;;;0.55;;
34236;SDS011;20501;45.956;13.632;2023-08-30T01:07:44;1.30;;;0.47;;
34236;SDS011;20501;45.956;13.632;2023-08-30T01:10:10;3.45;;;0.60;;
34236;SDS011;20501;45.956;13.632;2023-08-30T01:12:43;4.93;;;0.60;;
34236;SDS011;20501;45.956;13.632;2023-08-30T01:15:18;6.43;;;0.60;;
34236;SDS011;20501;45.956;13.632;2023-08-30T01:17:44;2.38;;;0.40;;
34236;SDS011;20501;45.956;13.632;2023-08-30T01:20:17;1.38;;;0.55;;
34236;SDS011;20501;45.956;13.632;2023-08-30T01:28:22;4.55;;;0.63;;
34236;SDS011;20501;45.956;13.632;2023-08-30T01:30:49;5.22;;;0.70;;
34236;SDS011;20501;45.956;13.632;2023-08-30T01:33:19;0.47;;;0.47;;
34236;SDS011;20501;45.956;13.632;2023-08-30T01:35:45;1.08;;;0.45;;
34236;SDS011;20501;45.956;13.632;2023-08-30T01:38:11;4.10;;;0.60;;
34236;SDS011;20501;45.956;13.632;2023-08-30T01:40:42;4.05;;;0.57;;
34236;SDS011;20501;45.956;13.632;2023-08-30T01:43:09;3.92;;;0.35;;
34236;SDS011;20501;45.956;13.632;2023-08-30T01:45:39;4.03;;;0.63;;
34236;SDS011;20501;45.956;13.632;2023-08-30T01:48:08;3.88;;;0.77;;
34236;SDS011;20501;45.956;13.632;2023-08-30T01:50:35;5.10;;;0.73;;
34236;SDS011;20501;45.956;13.632;2023-08-30T01:53:02;1.50;;;0.65;;
34236;SDS011;20501;45.956;13.632;2023-08-30T01:55:28;5.35;;;0.70;;
34236;SDS011;20501;45.956;13.632;2023-08-30T01:57:55;9.00;;;0.70;;
34236;SDS011;20501;45.956;13.632;2023-08-30T02:00:20;2.13;;;0.60;;
34236;SDS011;20501;45.956;13.632;2023-08-30T02:02:47;3.67;;;0.55;;
34236;SDS011;20501;45.956;13.632;2023-08-30T02:07:57;6.03;;;0.50;;
34236;SDS011;20501;45.956;13.632;2023-08-30T02:10:31;3.13;;;0.60;;
34236;SDS011;20501;45.956;13.632;2023-08-30T02:13:00;3.83;;;0.43;;
34236;SDS011;20501;45.956;13.632;2023-08-30T02:15:29;2.30;;;0.40;;
34236;SDS011;20501;45.956;13.632;2023-08-30T02:17:56;4.45;;;0.30;;
34236;SDS011;20501;45.956;13.632;2023-08-30T02:20:22;0.65;;;0.20;;
34236;SDS011;20501;45.956;13.632;2023-08-30T02:22:48;0.30;;;0.30;;
34236;SDS011;20501;45.956;13.632;2023-08-30T02:25:13;0.30;;;0.30;;
34236;SDS011;20501;45.956;13.632;2023-08-30T02:27:39;3.45;;;0.25;;
34236;SDS011;20501;45.956;13.632;2023-08-30T02:30:05;1.35;;;0.10;;
34236;SDS011;20501;45.956;13.632;2023-08-30T02:32:32;2.22;;;0.40;;
34236;SDS011;20501;45.956;13.632;2023-08-30T02:34:57;2.20;;;0.17;;
34236;SDS011;20501;45.956;13.632;2023-08-30T02:37:23;0.20;;;0.20;;
34236;SDS011;20501;45.956;13.632;2023-08-30T02:39:49;1.20;;;0.15;;
34236;SDS011;20501;45.956;13.632;2023-08-30T02:42:14;2.72;;;0.15;;
34236;SDS011;20501;45.956;13.632;2023-08-30T02:44:40;0.85;;;0.20;;
34236;SDS011;20501;45.956;13.632;2023-08-30T02:47:05;0.30;;;0.20;;
34236;SDS011;20501;45.956;13.632;2023-08-30T02:49:31;4.82;;;0.30;;
34236;SDS011;20501;45.956;13.632;2023-08-30T02:51:56;1.50;;;0.30;;
34236;SDS011;20501;45.956;13.632;2023-08-30T02:54:22;2.70;;;0.15;;
34236;SDS011;20501;45.956;13.632;2023-08-30T02:56:47;0.25;;;0.10;;
34236;SDS011;20501;45.956;13.632;2023-08-30T02:59:13;1.17;;;0.52;;
34236;SDS011;20501;45.956;13.632;2023-08-30T03:01:39;1.60;;;0.30;;
34236;SDS011;20501;45.956;13.632;2023-08-30T03:04:05;5.05;;;0.20;;
34236;SDS011;20501;45.956;13.632;2023-08-30T03:06:32;0.32;;;0.20;;
34236;SDS011;20501;45.956;13.632;2023-08-30T03:08:58;1.02;;;0.30;;
34236;SDS011;20501;45.956;13.632;2023-08-30T03:11:23;3.80;;;0.22;;
34236;SDS011;20501;45.956;13.632;2023-08-30T03:13:49;0.00;;;0.00;;
34236;SDS011;20501;45.956;13.632;2023-08-30T03:16:15;4.38;;;0.30;;
34236;SDS011;20501;45.956;13.632;2023-08-30T03:18:42;0.10;;;0.10;;
34236;SDS011;20501;45.956;13.632;2023-08-30T03:21:08;2.17;;;0.25;;
34236;SDS011;20501;45.956;13.632;2023-08-30T03:23:34;0.30;;;0.10;;
34236;SDS011;20501;45.956;13.632;2023-08-30T03:26:09;0.20;;;0.10;;
34236;SDS011;20501;45.956;13.632;2023-08-30T03:28:39;0.85;;;0.15;;
34236;SDS011;20501;45.956;13.632;2023-08-30T03:31:12;0.67;;;0.10;;
34236;SDS011;20501;45.956;13.632;2023-08-30T03:33:38;0.10;;;0.10;;
34236;SDS011;20501;45.956;13.632;2023-08-30T03:36:06;2.28;;;0.20;;
34236;SDS011;20501;45.956;13.632;2023-08-30T03:38:32;0.17;;;0.10;;
34236;SDS011;20501;45.956;13.632;2023-08-30T03:40:57;0.55;;;0.10;;
34236;SDS011;20501;45.956;13.632;2023-08-30T03:43:23;0.10;;;0.10;;
34236;SDS011;20501;45.956;13.632;2023-08-30T03:45:48;0.25;;;0.10;;
34236;SDS011;20501;45.956;13.632;2023-08-30T03:48:13;0.13;;;0.13;;
34236;SDS011;20501;45.956;13.632;2023-08-30T03:50:39;0.55;;;0.10;;
34236;SDS011;20501;45.956;13.632;2023-08-30T03:53:04;0.43;;;0.10;;
34236;SDS011;20501;45.956;13.632;2023-08-30T03:55:30;0.28;;;0.05;;
34236;SDS011;20501;45.956;13.632;2023-08-30T03:57:55;0.43;;;0.40;;
34236;SDS011;20501;45.956;13.632;2023-08-30T04:00:20;0.00;;;0.00;;
34236;SDS011;20501;45.956;13.632;2023-08-30T04:02:46;1.05;;;0.10;;
34236;SDS011;20501;45.956;13.632;2023-08-30T04:05:12;2.22;;;0.40;;
34236;SDS011;20501;45.956;13.632;2023-08-30T04:07:37;0.45;;;0.20;;
34236;SDS011;20501;45.956;13.632;2023-08-30T04:10:03;1.77;;;0.25;;
34236;SDS011;20501;45.956;13.632;2023-08-30T04:12:32;0.30;;;0.15;;
34236;SDS011;20501;45.956;13.632;2023-08-30T04:14:59;0.63;;;0.20;;
34236;SDS011;20501;45.956;13.632;2023-08-30T04:17:24;0.10;;;0.10;;
34236;SDS011;20501;45.956;13.632;2023-08-30T04:19:53;0.22;;;0.10;;
34236;SDS011;20501;45.956;13.632;2023-08-30T04:22:19;1.88;;;0.20;;
34236;SDS011;20501;45.956;13.632;2023-08-30T04:24:45;1.90;;;0.10;;
34236;SDS011;20501;45.956;13.632;2023-08-30T04:27:11;0.10;;;0.10;;
34236;SDS011;20501;45.956;13.632;2023-08-30T04:29:36;1.73;;;0.80;;
34236;SDS011;20501;45.956;13.632;2023-08-30T04:32:02;0.10;;;0.10;;
34236;SDS011;20501;45.956;13.632;2023-08-30T04:34:27;0.40;;;0.10;;
34236;SDS011;20501;45.956;13.632;2023-08-30T04:36:54;0.20;;;0.10;;
34236;SDS011;20501;45.956;13.632;2023-08-30T04:39:19;0.10;;;0.10;;
34236;SDS011;20501;45.956;13.632;2023-08-30T04:41:45;0.32;;;0.20;;
34236;SDS011;20501;45.956;13.632;2023-08-30T04:44:10;0.20;;;0.10;;
34236;SDS011;20501;45.956;13.632;2023-08-30T04:46:36;0.93;;;0.10;;
34236;SDS011;20501;45.956;13.632;2023-08-30T04:49:01;0.20;;;0.20;;
34236;SDS011;20501;45.956;13.632;2023-08-30T04:51:26;1.80;;;0.25;;
34236;SDS011;20501;45.956;13.632;2023-08-30T04:53:52;0.60;;;0.30;;
34236;SDS011;20501;45.956;13.632;2023-08-30T04:56:17;0.45;;;0.43;;
34236;SDS011;20501;45.956;13.632;2023-08-30T04:58:43;0.25;;;0.25;;
34236;SDS011;20501;45.956;13.632;2023-08-30T05:01:09;2.10;;;0.20;;
34236;SDS011;20501;45.956;13.632;2023-08-30T05:03:36;2.85;;;0.20;;
34236;SDS011;20501;45.956;13.632;2023-08-30T05:06:01;0.65;;;0.17;;
34236;SDS011;20501;45.956;13.632;2023-08-30T05:08:27;0.00;;;0.00;;
34236;SDS011;20501;45.956;13.632;2023-08-30T05:10:55;4.30;;;0.20;;
34236;SDS011;20501;45.956;13.632;2023-08-30T05:13:21;0.93;;;0.20;;
34236;SDS011;20501;45.956;13.632;2023-08-30T05:15:46;0.38;;;0.17;;
34236;SDS011;20501;45.956;13.632;2023-08-30T05:18:12;0.20;;;0.20;;
34236;SDS011;20501;45.956;13.632;2023-08-30T05:20:37;4.80;;;0.30;;
34236;SDS011;20501;45.956;13.632;2023-08-30T05:23:03;1.65;;;0.63;;
34236;SDS011;20501;45.956;13.632;2023-08-30T05:25:28;2.10;;;0.35;;
34236;SDS011;20501;45.956;13.632;2023-08-30T05:27:54;2.75;;;0.35;;
34236;SDS011;20501;45.956;13.632;2023-08-30T05:30:19;0.30;;;0.22;;
34236;SDS011;20501;45.956;13.632;2023-08-30T05:32:45;1.05;;;0.50;;
34236;SDS011;20501;45.956;13.632;2023-08-30T05:35:10;0.35;;;0.35;;
34236;SDS011;20501;45.956;13.632;2023-08-30T05:37:36;4.88;;;0.30;;
34236;SDS011;20501;45.956;13.632;2023-08-30T05:40:01;0.28;;;0.25;;
34236;SDS011;20501;45.956;13.632;2023-08-30T05:42:27;1.00;;;0.43;;
34236;SDS011;20501;45.956;13.632;2023-08-30T05:44:53;1.13;;;0.30;;
34236;SDS011;20501;45.956;13.632;2023-08-30T05:47:20;0.47;;;0.40;;
34236;SDS011;20501;45.956;13.632;2023-08-30T05:49:46;1.23;;;0.30;;
34236;SDS011;20501;45.956;13.632;2023-08-30T05:52:11;0.63;;;0.50;;
34236;SDS011;20501;45.956;13.632;2023-08-30T05:54:37;1.42;;;0.45;;
34236;SDS011;20501;45.956;13.632;2023-08-30T05:57:02;2.92;;;0.50;;
34236;SDS011;20501;45.956;13.632;2023-08-30T05:59:28;0.40;;;0.40;;
34236;SDS011;20501;45.956;13.632;2023-08-30T06:01:53;0.73;;;0.40;;
34236;SDS011;20501;45.956;13.632;2023-08-30T06:04:19;0.73;;;0.70;;
34236;SDS011;20501;45.956;13.632;2023-08-30T06:06:45;12.68;;;5.60;;
34236;SDS011;20501;45.956;13.632;2023-08-30T06:09:10;1.67;;;0.70;;
34236;SDS011;20501;45.956;13.632;2023-08-30T06:11:37;2.05;;;0.63;;
34236;SDS011;20501;45.956;13.632;2023-08-30T06:14:04;1.42;;;1.17;;
34236;SDS011;20501;45.956;13.632;2023-08-30T06:16:30;0.30;;;0.30;;
34236;SDS011;20501;45.956;13.632;2023-08-30T06:18:55;0.60;;;0.38;;
34236;SDS011;20501;45.956;13.632;2023-08-30T06:21:20;0.50;;;0.28;;
34236;SDS011;20501;45.956;13.632;2023-08-30T06:23:46;2.80;;;0.85;;
34236;SDS011;20501;45.956;13.632;2023-08-30T06:26:11;1.10;;;0.30;;
34236;SDS011;20501;45.956;13.632;2023-08-30T06:28:37;1.50;;;0.40;;
34236;SDS011;20501;45.956;13.632;2023-08-30T06:31:02;0.68;;;0.45;;
34236;SDS011;20501;45.956;13.632;2023-08-30T06:33:28;0.90;;;0.40;;
34236;SDS011;20501;45.956;13.632;2023-08-30T06:35:53;0.35;;;0.22;;
34236;SDS011;20501;45.956;13.632;2023-08-30T06:38:20;19.38;;;1.33;;
34236;SDS011;20501;45.956;13.632;2023-08-30T06:40:46;3.33;;;0.63;;
34236;SDS011;20501;45.956;13.632;2023-08-30T06:43:12;3.15;;;0.40;;
34236;SDS011;20501;45.956;13.632;2023-08-30T06:45:38;1.17;;;0.40;;
34236;SDS011;20501;45.956;13.632;2023-08-30T06:48:05;0.47;;;0.40;;
34236;SDS011;20501;45.956;13.632;2023-08-30T06:52:56;0.70;;;0.50;;
34236;SDS011;20501;45.956;13.632;2023-08-30T06:55:22;0.77;;;0.47;;
34236;SDS011;20501;45.956;13.632;2023-08-30T06:57:47;4.78;;;1.02;;
34236;SDS011;20501;45.956;13.632;2023-08-30T07:00:16;2.78;;;1.00;;
34236;SDS011;20501;45.956;13.632;2023-08-30T07:02:43;1.35;;;0.70;;
34236;SDS011;20501;45.956;13.632;2023-08-30T07:05:14;1.63;;;0.50;;
34236;SDS011;20501;45.956;13.632;2023-08-30T07:07:40;1.08;;;0.50;;
34236;SDS011;20501;45.956;13.632;2023-08-30T07:10:05;0.90;;;0.45;;
34236;SDS011;20501;45.956;13.632;2023-08-30T07:12:31;2.03;;;0.80;;
34236;SDS011;20501;45.956;13.632;2023-08-30T07:14:56;5.15;;;1.90;;
34236;SDS011;20501;45.956;13.632;2023-08-30T07:17:22;6.50;;;2.45;;
34236;SDS011;20501;45.956;13.632;2023-08-30T07:19:48;10.38;;;5.43;;
34236;SDS011;20501;45.956;13.632;2023-08-30T07:22:14;9.52;;;5.03;;
34236;SDS011;20501;45.956;13.632;2023-08-30T07:24:41;10.23;;;4.40;;
34236;SDS011;20501;45.956;13.632;2023-08-30T07:27:08;6.25;;;2.92;;
34236;SDS011;20501;45.956;13.632;2023-08-30T07:29:33;6.18;;;2.55;;
34236;SDS011;20501;45.956;13.632;2023-08-30T07:31:59;5.38;;;2.28;;
34236;SDS011;20501;45.956;13.632;2023-08-30T07:34:24;7.82;;;2.50;;
34236;SDS011;20501;45.956;13.632;2023-08-30T07:36:49;2.20;;;1.80;;
34236;SDS011;20501;45.956;13.632;2023-08-30T07:39:15;5.43;;;1.60;;
34236;SDS011;20501;45.956;13.632;2023-08-30T07:41:40;5.22;;;2.13;;
34236;SDS011;20501;45.956;13.632;2023-08-30T07:44:06;3.10;;;1.65;;
34236;SDS011;20501;45.956;13.632;2023-08-30T07:46:31;2.25;;;1.35;;
34236;SDS011;20501;45.956;13.632;2023-08-30T07:48:57;1.77;;;1.23;;
34236;SDS011;20501;45.956;13.632;2023-08-30T07:51:22;1.77;;;1.10;;
34236;SDS011;20501;45.956;13.632;2023-08-30T07:53:47;2.65;;;1.10;;
34236;SDS011;20501;45.956;13.632;2023-08-30T07:56:13;3.83;;;0.80;;
34236;SDS011;20501;45.956;13.632;2023-08-30T07:58:42;1.30;;;0.70;;
34236;SDS011;20501;45.956;13.632;2023-08-30T08:01:08;2.08;;;0.70;;
34236;SDS011;20501;45.956;13.632;2023-08-30T08:03:33;1.83;;;0.80;;
34236;SDS011;20501;45.956;13.632;2023-08-30T08:05:59;2.60;;;1.05;;
34236;SDS011;20501;45.956;13.632;2023-08-30T08:08:25;0.63;;;0.50;;
34236;SDS011;20501;45.956;13.632;2023-08-30T08:10:51;1.58;;;0.75;;
34236;SDS011;20501;45.956;13.632;2023-08-30T08:13:16;2.03;;;0.60;;
34236;SDS011;20501;45.956;13.632;2023-08-30T08:15:42;2.40;;;0.80;;
34236;SDS011;20501;45.956;13.632;2023-08-30T08:18:09;0.22;;;0.22;;
34236;SDS011;20501;45.956;13.632;2023-08-30T08:20:34;1.17;;;0.70;;
34236;SDS011;20501;45.956;13.632;2023-08-30T08:23:01;1.08;;;0.22;;
34236;SDS011;20501;45.956;13.632;2023-08-30T08:25:27;1.40;;;0.43;;
34236;SDS011;20501;45.956;13.632;2023-08-30T08:27:53;0.88;;;0.20;;
34236;SDS011;20501;45.956;13.632;2023-08-30T08:30:18;0.75;;;0.32;;
34236;SDS011;20501;45.956;13.632;2023-08-30T08:32:45;1.00;;;0.30;;
34236;SDS011;20501;45.956;13.632;2023-08-30T08:35:10;0.20;;;0.20;;
34236;SDS011;20501;45.956;13.632;2023-08-30T08:37:36;1.55;;;0.40;;
34236;SDS011;20501;45.956;13.632;2023-08-30T08:40:01;1.90;;;0.20;;
34236;SDS011;20501;45.956;13.632;2023-08-30T08:42:33;0.68;;;0.40;;
34236;SDS011;20501;45.956;13.632;2023-08-30T08:45:00;1.40;;;0.30;;
34236;SDS011;20501;45.956;13.632;2023-08-30T08:47:27;2.47;;;0.32;;
34236;SDS011;20501;45.956;13.632;2023-08-30T08:49:55;1.30;;;0.40;;
34236;SDS011;20501;45.956;13.632;2023-08-30T08:52:21;1.35;;;0.50;;
34236;SDS011;20501;45.956;13.632;2023-08-30T08:54:47;1.48;;;0.20;;
34236;SDS011;20501;45.956;13.632;2023-08-30T08:57:12;2.33;;;0.30;;
34236;SDS011;20501;45.956;13.632;2023-08-30T08:59:38;1.70;;;0.20;;
34236;SDS011;20501;45.956;13.632;2023-08-30T09:02:04;0.32;;;0.30;;
34236;SDS011;20501;45.956;13.632;2023-08-30T09:04:30;0.30;;;0.30;;
34236;SDS011;20501;45.956;13.632;2023-08-30T09:06:56;3.30;;;0.40;;
34236;SDS011;20501;45.956;13.632;2023-08-30T09:09:24;0.90;;;0.45;;
34236;SDS011;20501;45.956;13.632;2023-08-30T09:11:49;0.47;;;0.33;;
34236;SDS011;20501;45.956;13.632;2023-08-30T09:14:15;0.45;;;0.40;;
34236;SDS011;20501;45.956;13.632;2023-08-30T09:16:40;0.30;;;0.30;;
34236;SDS011;20501;45.956;13.632;2023-08-30T09:19:06;0.43;;;0.25;;
34236;SDS011;20501;45.956;13.632;2023-08-30T09:21:32;0.52;;;0.32;;
34236;SDS011;20501;45.956;13.632;2023-08-30T09:26:23;0.95;;;0.20;;
34236;SDS011;20501;45.956;13.632;2023-08-30T09:28:49;0.40;;;0.20;;
34236;SDS011;20501;45.956;13.632;2023-08-30T09:31:18;0.30;;;0.13;;
34236;SDS011;20501;45.956;13.632;2023-08-30T09:33:44;2.20;;;0.20;;
34236;SDS011;20501;45.956;13.632;2023-08-30T09:36:10;0.50;;;0.20;;
34236;SDS011;20501;45.956;13.632;2023-08-30T09:38:39;1.25;;;0.20;;
34236;SDS011;20501;45.956;13.632;2023-08-30T09:41:04;0.30;;;0.20;;
34236;SDS011;20501;45.956;13.632;2023-08-30T09:43:32;0.85;;;0.30;;
34236;SDS011;20501;45.956;13.632;2023-08-30T09:45:58;1.70;;;0.57;;
34236;SDS011;20501;45.956;13.632;2023-08-30T09:48:27;1.15;;;0.43;;
34236;SDS011;20501;45.956;13.632;2023-08-30T09:50:54;0.10;;;0.10;;
34236;SDS011;20501;45.956;13.632;2023-08-30T09:53:24;0.28;;;0.17;;
34236;SDS011;20501;45.956;13.632;2023-08-30T09:55:53;0.10;;;0.10;;
34236;SDS011;20501;45.956;13.632;2023-08-30T09:58:20;0.00;;;0.00;;
34236;SDS011;20501;45.956;13.632;2023-08-30T10:00:46;1.02;;;0.20;;
34236;SDS011;20501;45.956;13.632;2023-08-30T10:03:13;0.10;;;0.10;;
34236;SDS011;20501;45.956;13.632;2023-08-30T10:05:39;0.70;;;0.20;;
34236;SDS011;20501;45.956;13.632;2023-08-30T10:08:06;0.55;;;0.10;;
34236;SDS011;20501;45.956;13.632;2023-08-30T10:10:34;0.85;;;0.20;;
34236;SDS011;20501;45.956;13.632;2023-08-30T10:13:00;0.10;;;0.10;;
34236;SDS011;20501;45.956;13.632;2023-08-30T10:15:26;0.47;;;0.47;;
34236;SDS011;20501;45.956;13.632;2023-08-30T10:17:55;0.90;;;0.40;;
34236;SDS011;20501;45.956;13.632;2023-08-30T10:20:23;0.10;;;0.10;;
34236;SDS011;20501;45.956;13.632;2023-08-30T10:22:49;0.90;;;0.17;;
34236;SDS011;20501;45.956;13.632;2023-08-30T10:27:46;0.20;;;0.10;;
34236;SDS011;20501;45.956;13.632;2023-08-30T10:30:14;0.15;;;0.10;;
34236;SDS011;20501;45.956;13.632;2023-08-30T10:32:42;1.08;;;0.15;;
34236;SDS011;20501;45.956;13.632;2023-08-30T10:35:15;0.65;;;0.60;;
34236;SDS011;20501;45.956;13.632;2023-08-30T10:37:53;0.30;;;0.20;;
34236;SDS011;20501;45.956;13.632;2023-08-30T10:40:22;0.38;;;0.20;;
34236;SDS011;20501;45.956;13.632;2023-08-30T10:43:00;1.02;;;0.45;;
34236;SDS011;20501;45.956;13.632;2023-08-30T10:45:29;0.28;;;0.20;;
34236;SDS011;20501;45.956;13.632;2023-08-30T10:47:55;0.17;;;0.13;;
34236;SDS011;20501;45.956;13.632;2023-08-30T10:50:29;0.15;;;0.15;;
34236;SDS011;20501;45.956;13.632;2023-08-30T10:52:56;0.10;;;0.10;;
34236;SDS011;20501;45.956;13.632;2023-08-30T10:55:22;3.23;;;0.20;;
34236;SDS011;20501;45.956;13.632;2023-08-30T10:57:57;0.68;;;0.20;;
34236;SDS011;20501;45.956;13.632;2023-08-30T11:00:24;0.30;;;0.20;;
34236;SDS011;20501;45.956;13.632;2023-08-30T11:02:55;0.20;;;0.20;;
34236;SDS011;20501;45.956;13.632;2023-08-30T11:05:22;2.33;;;0.20;;
34236;SDS011;20501;45.956;13.632;2023-08-30T11:07:48;0.30;;;0.20;;
34236;SDS011;20501;45.956;13.632;2023-08-30T11:10:16;0.10;;;0.10;;
34236;SDS011;20501;45.956;13.632;2023-08-30T11:12:45;0.20;;;0.20;;
34236;SDS011;20501;45.956;13.632;2023-08-30T11:15:12;0.50;;;0.10;;
34236;SDS011;20501;45.956;13.632;2023-08-30T11:17:41;0.40;;;0.40;;
34236;SDS011;20501;45.956;13.632;2023-08-30T11:20:08;0.40;;;0.20;;
34236;SDS011;20501;45.956;13.632;2023-08-30T11:22:53;0.25;;;0.10;;
34236;SDS011;20501;45.956;13.632;2023-08-30T11:25:20;0.63;;;0.20;;
34236;SDS011;20501;45.956;13.632;2023-08-30T11:27:46;0.10;;;0.10;;
34236;SDS011;20501;45.956;13.632;2023-08-30T11:30:12;0.30;;;0.10;;
34236;SDS011;20501;45.956;13.632;2023-08-30T11:32:39;0.00;;;0.00;;
34236;SDS011;20501;45.956;13.632;2023-08-30T11:35:07;0.00;;;0.00;;
34236;SDS011;20501;45.956;13.632;2023-08-30T11:37:34;0.52;;;0.10;;
34236;SDS011;20501;45.956;13.632;2023-08-30T11:40:00;0.20;;;0.10;;
34236;SDS011;20501;45.956;13.632;2023-08-30T11:42:27;0.10;;;0.10;;
34236;SDS011;20501;45.956;13.632;2023-08-30T11:44:53;0.63;;;0.20;;
34236;SDS011;20501;45.956;13.632;2023-08-30T11:47:27;0.32;;;0.10;;
34236;SDS011;20501;45.956;13.632;2023-08-30T11:49:53;0.10;;;0.10;;
34236;SDS011;20501;45.956;13.632;2023-08-30T11:52:20;0.10;;;0.10;;
34236;SDS011;20501;45.956;13.632;2023-08-30T11:54:49;0.10;;;0.10;;
34236;SDS011;20501;45.956;13.632;2023-08-30T11:57:15;0.68;;;0.20;;
34236;SDS011;20501;45.956;13.632;2023-08-30T11:59:41;0.15;;;0.00;;
34236;SDS011;20501;45.956;13.632;2023-08-30T12:02:06;0.10;;;0.00;;
34236;SDS011;20501;45.956;13.632;2023-08-30T12:04:39;0.40;;;0.10;;
34236;SDS011;20501;45.956;13.632;2023-08-30T12:07:05;0.52;;;0.10;;
34236;SDS011;20501;45.956;13.632;2023-08-30T12:09:31;0.95;;;0.10;;
34236;SDS011;20501;45.956;13.632;2023-08-30T12:12:06;2.83;;;0.20;;
34236;SDS011;20501;45.956;13.632;2023-08-30T12:14:38;0.10;;;0.10;;
34236;SDS011;20501;45.956;13.632;2023-08-30T12:17:04;0.20;;;0.20;;
34236;SDS011;20501;45.956;13.632;2023-08-30T12:19:31;0.60;;;0.28;;
34236;SDS011;20501;45.956;13.632;2023-08-30T12:24:28;0.10;;;0.10;;
34236;SDS011;20501;45.956;13.632;2023-08-30T12:26:54;0.57;;;0.25;;
34236;SDS011;20501;45.956;13.632;2023-08-30T12:29:19;3.38;;;0.40;;
34236;SDS011;20501;45.956;13.632;2023-08-30T12:31:44;2.45;;;0.30;;
34236;SDS011;20501;45.956;13.632;2023-08-30T12:34:11;3.60;;;0.17;;
34236;SDS011;20501;45.956;13.632;2023-08-30T12:36:36;0.30;;;0.30;;
34236;SDS011;20501;45.956;13.632;2023-08-30T12:39:01;0.82;;;0.20;;
34236;SDS011;20501;45.956;13.632;2023-08-30T12:41:29;0.47;;;0.30;;
34236;SDS011;20501;45.956;13.632;2023-08-30T12:43:54;0.10;;;0.10;;
34236;SDS011;20501;45.956;13.632;2023-08-30T12:46:20;0.40;;;0.20;;
34236;SDS011;20501;45.956;13.632;2023-08-30T12:48:45;1.27;;;0.50;;
34236;SDS011;20501;45.956;13.632;2023-08-30T12:51:10;0.17;;;0.17;;
34236;SDS011;20501;45.956;13.632;2023-08-30T12:53:37;0.20;;;0.20;;
34236;SDS011;20501;45.956;13.632;2023-08-30T12:56:02;0.20;;;0.20;;
34236;SDS011;20501;45.956;13.632;2023-08-30T13:00:54;3.67;;;0.20;;
34236;SDS011;20501;45.956;13.632;2023-08-30T13:03:20;0.10;;;0.10;;
34236;SDS011;20501;45.956;13.632;2023-08-30T13:05:45;6.55;;;0.30;;
34236;SDS011;20501;45.956;13.632;2023-08-30T13:08:11;0.63;;;0.22;;
34236;SDS011;20501;45.956;13.632;2023-08-30T13:10:36;1.13;;;0.10;;
34236;SDS011;20501;45.956;13.632;2023-08-30T13:13:02;0.30;;;0.30;;
34236;SDS011;20501;45.956;13.632;2023-08-30T13:15:28;0.30;;;0.20;;
34236;SDS011;20501;45.956;13.632;2023-08-30T13:17:53;1.27;;;0.40;;
34236;SDS011;20501;45.956;13.632;2023-08-30T13:20:19;0.20;;;0.20;;
34236;SDS011;20501;45.956;13.632;2023-08-30T13:22:45;0.82;;;0.20;;
34236;SDS011;20501;45.956;13.632;2023-08-30T13:25:10;0.55;;;0.30;;
34236;SDS011;20501;45.956;13.632;2023-08-30T13:27:36;6.68;;;0.47;;
34236;SDS011;20501;45.956;13.632;2023-08-30T13:30:01;1.25;;;0.35;;
34236;SDS011;20501;45.956;13.632;2023-08-30T13:32:27;0.20;;;0.20;;
34236;SDS011;20501;45.956;13.632;2023-08-30T13:34:53;0.85;;;0.38;;
34236;SDS011;20501;45.956;13.632;2023-08-30T13:37:18;0.30;;;0.30;;
34236;SDS011;20501;45.956;13.632;2023-08-30T13:39:44;0.63;;;0.32;;
34236;SDS011;20501;45.956;13.632;2023-08-30T13:42:10;2.10;;;1.75;;
34236;SDS011;20501;45.956;13.632;2023-08-30T13:44:36;2.30;;;0.57;;
34236;SDS011;20501;45.956;13.632;2023-08-30T13:47:03;0.52;;;0.32;;
34236;SDS011;20501;45.956;13.632;2023-08-30T13:49:31;0.10;;;0.10;;
34236;SDS011;20501;45.956;13.632;2023-08-30T13:51:57;0.32;;;0.32;;
34236;SDS011;20501;45.956;13.632;2023-08-30T13:54:23;1.02;;;0.30;;
34236;SDS011;20501;45.956;13.632;2023-08-30T13:56:49;1.20;;;0.20;;
34236;SDS011;20501;45.956;13.632;2023-08-30T13:59:15;0.43;;;0.22;;
34236;SDS011;20501;45.956;13.632;2023-08-30T14:01:40;0.52;;;0.20;;
34236;SDS011;20501;45.956;13.632;2023-08-30T14:04:07;0.35;;;0.22;;
34236;SDS011;20501;45.956;13.632;2023-08-30T14:06:33;0.28;;;0.20;;
34236;SDS011;20501;45.956;13.632;2023-08-30T14:08:58;0.85;;;0.30;;
34236;SDS011;20501;45.956;13.632;2023-08-30T14:11:24;0.43;;;0.20;;
34236;SDS011;20501;45.956;13.632;2023-08-30T14:13:49;3.88;;;0.20;;
34236;SDS011;20501;45.956;13.632;2023-08-30T14:16:14;0.45;;;0.20;;
34236;SDS011;20501;45.956;13.632;2023-08-30T14:18:40;0.30;;;0.25;;
34236;SDS011;20501;45.956;13.632;2023-08-30T14:21:05;2.08;;;0.20;;
34236;SDS011;20501;45.956;13.632;2023-08-30T14:23:31;0.60;;;0.20;;
34236;SDS011;20501;45.956;13.632;2023-08-30T14:25:58;0.28;;;0.15;;
34236;SDS011;20501;45.956;13.632;2023-08-30T14:28:25;0.10;;;0.10;;
34236;SDS011;20501;45.956;13.632;2023-08-30T14:30:51;0.13;;;0.10;;
34236;SDS011;20501;45.956;13.632;2023-08-30T14:33:17;0.75;;;0.20;;
34236;SDS011;20501;45.956;13.632;2023-08-30T14:35:43;0.20;;;0.20;;
34236;SDS011;20501;45.956;13.632;2023-08-30T14:38:08;2.25;;;1.00;;
34236;SDS011;20501;45.956;13.632;2023-08-30T14:40:34;0.40;;;0.10;;
34236;SDS011;20501;45.956;13.632;2023-08-30T14:42:59;0.90;;;0.30;;
34236;SDS011;20501;45.956;13.632;2023-08-30T14:45:25;0.20;;;0.20;;
34236;SDS011;20501;45.956;13.632;2023-08-30T14:47:50;0.10;;;0.10;;
34236;SDS011;20501;45.956;13.632;2023-08-30T14:50:16;0.17;;;0.17;;
34236;SDS011;20501;45.956;13.632;2023-08-30T14:52:41;0.43;;;0.22;;